createdAt,value
2019-01-25T00:03:11.587Z,90.37
2019-01-25T00:05:37.733Z,90.35
2019-01-25T00:08:04.059Z,90.44
2019-01-25T00:10:30.295Z,90.54
2019-01-25T00:12:56.533Z,90.70
2019-01-25T00:15:22.660Z,90.77
2019-01-25T00:17:48.804Z,90.79
2019-01-25T00:20:15.033Z,90.95
2019-01-25T00:22:41.162Z,91.09
2019-01-25T00:28:20.817Z,91.26
2019-01-25T00:30:47.168Z,91.35
2019-01-25T00:33:13.391Z,91.48
2019-01-25T00:35:39.534Z,91.44
2019-01-25T00:38:05.698Z,91.51
2019-01-25T00:40:31.923Z,91.62
2019-01-25T00:42:58.161Z,91.68
2019-01-25T00:45:24.391Z,91.65
2019-01-25T00:47:50.530Z,91.69
2019-01-25T00:50:36.506Z,91.72
2019-01-25T00:55:56.194Z,91.92
2019-01-25T00:58:22.331Z,91.90
2019-01-25T01:00:48.553Z,91.95
2019-01-25T01:03:14.692Z,92.08
2019-01-25T01:05:41.119Z,92.20
2019-01-25T01:08:07.369Z,92.30
2019-01-25T01:10:33.598Z,92.39
2019-01-25T01:12:59.735Z,92.49
2019-01-25T01:15:25.869Z,92.41
2019-01-25T01:17:52.021Z,92.30
2019-01-25T01:20:59.563Z,92.28
2019-01-25T01:23:25.806Z,92.29
2019-01-25T01:25:51.937Z,92.32
2019-01-25T01:28:18.092Z,92.28
2019-01-25T01:30:44.322Z,92.27
2019-01-25T01:33:10.475Z,92.28
2019-01-25T01:35:36.605Z,92.23
2019-01-25T01:38:44.165Z,92.17
2019-01-25T01:41:10.395Z,92.14
2019-01-25T01:43:36.642Z,92.03
2019-01-25T01:46:02.774Z,92.00
2019-01-25T01:48:29.009Z,92.07
2019-01-25T01:50:55.241Z,91.94
2019-01-25T01:53:21.388Z,91.97
2019-01-25T01:55:47.619Z,91.97
2019-01-25T01:58:13.859Z,91.95
2019-01-25T02:00:40.091Z,92.01
2019-01-25T02:03:06.341Z,91.95
2019-01-25T02:05:32.570Z,91.96
2019-01-25T02:07:58.812Z,92.14
2019-01-25T02:11:06.355Z,92.06
2019-01-25T02:13:32.498Z,92.11
2019-01-25T02:15:58.722Z,92.19
2019-01-25T02:18:24.963Z,92.21
2019-01-25T02:20:51.091Z,92.22
2019-01-25T02:23:17.352Z,92.40
2019-01-25T02:25:43.600Z,92.73
2019-01-25T02:28:09.835Z,92.60
2019-01-25T02:30:35.972Z,92.47
2019-01-25T02:33:02.106Z,92.76
2019-01-25T02:35:28.347Z,92.84
2019-01-25T02:37:54.483Z,93.17
2019-01-25T02:41:02.053Z,93.21
2019-01-25T02:43:28.287Z,93.47
2019-01-25T02:45:54.535Z,93.34
2019-01-25T02:48:20.766Z,93.22
2019-01-25T02:50:47.012Z,93.00
2019-01-25T02:53:13.251Z,92.76
2019-01-25T02:55:39.405Z,92.62
2019-01-25T02:58:05.632Z,92.65
2019-01-25T03:00:31.868Z,92.43
2019-01-25T03:02:58.000Z,92.50
2019-01-25T03:08:18.083Z,92.39
2019-01-25T03:10:47.149Z,92.42
2019-01-25T03:13:12.470Z,92.36
2019-01-25T03:15:38.714Z,92.36
2019-01-25T03:20:52.576Z,92.50
2019-01-25T03:23:18.809Z,92.51
2019-01-25T03:25:45.043Z,92.49
2019-01-25T03:28:11.173Z,92.50
2019-01-25T03:30:37.323Z,92.50
2019-01-25T03:33:03.560Z,92.52
2019-01-25T03:35:29.803Z,92.57
2019-01-25T03:40:56.745Z,92.61
2019-01-25T03:43:22.981Z,92.65
2019-01-25T03:45:49.148Z,92.68
2019-01-25T03:48:15.452Z,92.38
2019-01-25T03:50:41.700Z,92.68
2019-01-25T03:53:07.929Z,92.58
2019-01-25T03:55:34.185Z,92.64
2019-01-25T03:58:00.417Z,92.63
2019-01-25T04:01:07.964Z,92.59
2019-01-25T04:03:34.194Z,92.62
2019-01-25T04:06:00.336Z,92.66
2019-01-25T04:08:26.460Z,92.61
2019-01-25T04:10:52.604Z,92.65
2019-01-25T04:13:18.841Z,92.65
2019-01-25T04:18:19.318Z,92.69
2019-01-25T04:20:45.446Z,92.73
2019-01-25T04:23:11.693Z,92.68
2019-01-25T04:25:37.923Z,92.67
2019-01-25T04:28:45.480Z,92.69
2019-01-25T04:31:11.746Z,92.68
2019-01-25T04:33:37.980Z,92.66
2019-01-25T04:36:04.211Z,92.63
2019-01-25T04:38:30.498Z,92.65
2019-01-25T04:40:56.627Z,92.64
2019-01-25T04:43:22.868Z,92.59
2019-01-25T04:45:49.111Z,92.55
2019-01-25T04:48:15.364Z,92.58
2019-01-25T04:50:41.589Z,92.58
2019-01-25T04:53:07.719Z,92.59
2019-01-25T04:55:33.939Z,92.43
2019-01-25T04:58:20.423Z,92.57
2019-01-25T05:00:46.763Z,92.61
2019-01-25T05:03:54.315Z,92.70
2019-01-25T05:06:20.554Z,92.73
2019-01-25T05:08:46.798Z,92.73
2019-01-25T05:17:26.597Z,92.78
2019-01-25T05:19:52.820Z,92.79
2019-01-25T05:22:18.950Z,92.77
2019-01-25T05:24:45.188Z,92.85
2019-01-25T05:27:11.420Z,92.85
2019-01-25T05:29:57.413Z,92.79
2019-01-25T05:32:23.657Z,92.78
2019-01-25T05:34:49.973Z,92.87
2019-01-25T05:37:16.237Z,92.89
2019-01-25T05:39:42.492Z,92.87
2019-01-25T05:42:08.626Z,92.91
2019-01-25T05:44:34.765Z,92.96
2019-01-25T05:53:15.355Z,92.98
2019-01-25T05:55:41.606Z,93.06
2019-01-25T05:58:49.147Z,92.97
2019-01-25T06:01:15.394Z,93.08
2019-01-25T06:03:41.634Z,93.05
2019-01-25T06:06:49.188Z,93.04
2019-01-25T06:12:15.748Z,93.00
2019-01-25T06:14:41.999Z,92.95
2019-01-25T06:17:08.230Z,92.96
2019-01-25T06:20:15.840Z,92.96
2019-01-25T06:22:42.114Z,92.94
2019-01-25T06:25:08.372Z,92.95
2019-01-25T06:27:54.364Z,92.99
2019-01-25T06:30:20.507Z,93.02
2019-01-25T06:32:46.635Z,93.01
2019-01-25T06:35:12.859Z,92.94
2019-01-25T06:37:39.104Z,92.94
2019-01-25T06:43:05.957Z,92.91
2019-01-25T06:45:32.132Z,92.92
2019-01-25T06:47:58.369Z,92.94
2019-01-25T06:53:18.989Z,93.00
2019-01-25T06:55:45.235Z,93.01
2019-01-25T06:58:31.222Z,92.97
2019-01-25T07:03:35.508Z,93.00
2019-01-25T07:06:01.758Z,92.96
2019-01-25T07:08:27.987Z,92.93
2019-01-25T07:10:54.120Z,92.88
2019-01-25T07:13:20.265Z,92.93
2019-01-25T07:15:46.500Z,92.98
2019-01-25T07:18:12.776Z,93.04
2019-01-25T07:20:38.929Z,93.06
2019-01-25T07:23:05.179Z,93.07
2019-01-25T07:25:31.611Z,93.06
2019-01-25T07:27:57.859Z,93.08
2019-01-25T07:30:24.101Z,93.03
2019-01-25T07:32:50.348Z,93.09
2019-01-25T07:35:16.469Z,93.10
2019-01-25T07:37:42.730Z,93.05
2019-01-25T07:40:50.251Z,93.04
2019-01-25T07:43:16.513Z,93.12
2019-01-25T07:45:42.649Z,93.08
2019-01-25T07:48:08.896Z,93.07
2019-01-25T07:50:35.145Z,93.15
2019-01-25T07:53:01.379Z,93.13
2019-01-25T07:55:27.613Z,93.10
2019-01-25T07:57:53.915Z,93.05
2019-01-25T08:00:20.184Z,93.06
2019-01-25T08:02:46.466Z,93.01
2019-01-25T08:05:12.797Z,93.02
2019-01-25T08:07:39.261Z,93.00
2019-01-25T08:13:19.244Z,93.02
2019-01-25T08:15:45.505Z,92.95
2019-01-25T08:18:11.810Z,92.99
2019-01-25T08:20:38.158Z,93.03
2019-01-25T08:23:04.415Z,93.01
2019-01-25T08:25:30.579Z,93.05
2019-01-25T08:27:56.798Z,93.04
2019-01-25T08:31:04.309Z,93.05
2019-01-25T08:33:30.577Z,93.04
2019-01-25T08:35:56.792Z,93.07
2019-01-25T08:38:23.044Z,93.02
2019-01-25T08:40:49.245Z,92.98
2019-01-25T08:43:15.557Z,92.98
2019-01-25T08:45:41.686Z,92.89
2019-01-25T08:48:07.916Z,92.87
2019-01-25T08:50:34.275Z,92.89
2019-01-25T08:53:00.470Z,92.93
2019-01-25T08:55:26.669Z,92.93
2019-01-25T08:57:52.949Z,92.95
2019-01-25T09:01:00.538Z,92.92
2019-01-25T09:03:26.776Z,92.85
2019-01-25T09:05:53.048Z,92.84
2019-01-25T09:08:19.295Z,92.80
2019-01-25T09:10:45.448Z,92.75
2019-01-25T09:13:11.588Z,92.73
2019-01-25T09:15:37.725Z,92.69
2019-01-25T09:21:11.309Z,92.63
2019-01-25T09:23:37.540Z,92.55
2019-01-25T09:26:03.787Z,92.60
2019-01-25T09:28:29.915Z,92.57
2019-01-25T09:30:56.159Z,92.55
2019-01-25T09:33:22.392Z,92.49
2019-01-25T09:35:48.656Z,92.47
2019-01-25T09:38:14.887Z,92.40
2019-01-25T09:40:41.136Z,92.34
2019-01-25T09:43:07.374Z,92.29
2019-01-25T09:45:33.611Z,92.27
2019-01-25T09:47:59.740Z,92.20
2019-01-25T09:50:26.175Z,91.81
2019-01-25T09:52:52.404Z,91.76
2019-01-25T09:55:59.953Z,91.68
2019-01-25T09:58:26.183Z,91.41
2019-01-25T10:01:33.749Z,91.11
2019-01-25T10:03:59.981Z,90.50
2019-01-25T10:06:26.127Z,89.82
2019-01-25T10:08:52.365Z,90.21
2019-01-25T10:11:18.607Z,90.04
2019-01-25T10:13:44.841Z,89.83
2019-01-25T10:16:11.083Z,89.90
2019-01-25T10:18:37.311Z,89.48
2019-01-25T10:21:03.474Z,89.40
2019-01-25T10:23:29.715Z,89.53
2019-01-25T10:25:55.943Z,89.50
2019-01-25T10:28:22.177Z,89.07
2019-01-25T10:30:48.412Z,89.35
2019-01-25T10:33:14.655Z,89.13
2019-01-25T10:35:40.793Z,89.06
2019-01-25T10:38:07.037Z,88.35
2019-01-25T10:40:33.269Z,88.61
2019-01-25T10:42:59.519Z,88.52
2019-01-25T10:45:45.528Z,88.55
2019-01-25T10:48:11.773Z,88.31
2019-01-25T10:50:37.908Z,88.20
2019-01-25T10:53:45.466Z,88.76
2019-01-25T10:56:11.700Z,88.66
2019-01-25T10:58:37.945Z,88.44
2019-01-25T11:01:04.184Z,88.63
2019-01-25T11:03:30.427Z,88.77
2019-01-25T11:05:56.665Z,88.66
2019-01-25T11:08:22.905Z,88.79
2019-01-25T11:10:49.147Z,89.09
2019-01-25T11:13:15.384Z,88.99
2019-01-25T11:15:41.611Z,89.00
2019-01-25T11:18:07.854Z,88.90
2019-01-25T11:20:34.083Z,89.08
2019-01-25T11:23:00.338Z,89.09
2019-01-25T11:26:07.877Z,89.05
2019-01-25T11:28:34.128Z,89.39
2019-01-25T11:31:00.398Z,89.09
2019-01-25T11:33:26.634Z,89.01
2019-01-25T11:35:52.864Z,89.05
2019-01-25T11:38:19.015Z,89.11
2019-01-25T11:40:45.150Z,89.27
2019-01-25T11:43:11.396Z,89.17
2019-01-25T11:45:37.631Z,89.03
2019-01-25T11:48:45.180Z,89.07
2019-01-25T11:51:11.432Z,89.12
2019-01-25T11:53:37.675Z,89.15
2019-01-25T11:56:03.908Z,89.04
2019-01-25T11:58:30.053Z,89.32
2019-01-25T12:00:56.286Z,89.18
2019-01-25T12:03:22.536Z,88.57
2019-01-25T12:05:48.763Z,89.00
2019-01-25T12:08:14.991Z,88.88
2019-01-25T12:10:42.605Z,88.88
2019-01-25T12:13:15.823Z,88.92
2019-01-25T12:15:37.564Z,89.01
2019-01-25T12:18:03.776Z,89.32
2019-01-25T12:21:11.337Z,88.99
2019-01-25T12:23:37.563Z,89.00
2019-01-25T12:26:03.812Z,88.99
2019-01-25T12:28:30.039Z,89.05
2019-01-25T12:30:56.188Z,88.80
2019-01-25T12:33:22.416Z,88.65
2019-01-25T12:35:48.660Z,89.04
2019-01-25T12:38:14.897Z,89.07
2019-01-25T12:40:42.363Z,89.07
2019-01-25T12:45:56.887Z,89.53
2019-01-25T12:48:23.121Z,88.85
2019-01-25T12:51:30.672Z,88.99
2019-01-25T12:53:56.810Z,88.64
2019-01-25T12:56:23.072Z,88.39
2019-01-25T12:58:49.303Z,88.08
2019-01-25T13:04:12.506Z,88.21
2019-01-25T13:06:38.769Z,87.99
2019-01-25T13:09:46.298Z,88.22
2019-01-25T13:15:27.661Z,88.00
2019-01-25T13:17:53.769Z,88.46
2019-01-25T13:20:39.872Z,88.36
2019-01-25T13:23:06.103Z,88.42
2019-01-25T13:25:32.364Z,88.17
2019-01-25T13:27:58.595Z,87.80
2019-01-25T13:31:06.148Z,87.48
2019-01-25T13:33:32.471Z,87.42
2019-01-25T13:35:58.715Z,87.71
2019-01-25T13:38:24.941Z,87.38
2019-01-25T13:40:51.211Z,87.53
2019-01-25T13:43:17.456Z,87.94
2019-01-25T13:45:43.595Z,88.22
2019-01-25T13:48:09.845Z,87.59
2019-01-25T13:50:36.069Z,87.24
2019-01-25T13:53:02.342Z,87.20
2019-01-25T13:55:28.562Z,87.57
2019-01-25T13:57:54.795Z,87.41
2019-01-25T14:00:40.915Z,87.29
2019-01-25T14:05:44.830Z,87.90
2019-01-25T14:08:11.144Z,87.51
2019-01-25T14:13:27.776Z,87.48
2019-01-25T14:15:54.007Z,87.84
2019-01-25T14:18:20.403Z,87.46
2019-01-25T14:20:46.631Z,87.35
2019-01-25T14:23:12.922Z,87.32
2019-01-25T14:25:39.214Z,87.40
2019-01-25T14:28:05.488Z,87.51
2019-01-25T14:33:53.013Z,87.22
2019-01-25T14:36:19.244Z,87.21
2019-01-25T14:38:45.395Z,87.71
2019-01-25T14:41:11.528Z,87.40
2019-01-25T14:43:37.801Z,87.54
2019-01-25T14:46:04.155Z,87.37
2019-01-25T14:48:30.370Z,87.71
2019-01-25T14:50:56.615Z,87.74
2019-01-25T14:53:22.869Z,87.47
2019-01-25T14:55:49.323Z,87.47
2019-01-25T14:58:15.595Z,87.71
2019-01-25T15:00:41.844Z,87.54
2019-01-25T15:03:08.139Z,87.58
2019-01-25T15:05:34.362Z,87.71
2019-01-25T15:08:00.616Z,87.39
2019-01-25T15:10:26.852Z,87.46
2019-01-25T15:15:54.249Z,87.44
2019-01-25T15:18:20.492Z,87.81
2019-01-25T15:20:46.728Z,87.62
2019-01-25T15:23:12.948Z,87.98
2019-01-25T15:25:39.225Z,87.54
2019-01-25T15:28:05.414Z,87.52
2019-01-25T15:33:25.085Z,87.54
2019-01-25T15:35:51.326Z,87.56
2019-01-25T15:38:17.567Z,87.83
2019-01-25T15:40:43.804Z,87.91
2019-01-25T15:43:10.042Z,87.97
2019-01-25T15:45:36.199Z,87.54
2019-01-25T15:51:09.827Z,87.45
2019-01-25T15:53:36.051Z,87.67
2019-01-25T15:56:02.294Z,87.34
2019-01-25T15:58:28.525Z,87.21
2019-01-25T16:00:54.775Z,87.56
2019-01-25T16:03:21.000Z,87.63
2019-01-25T16:05:47.248Z,87.53
2019-01-25T16:08:13.382Z,87.37
2019-01-25T16:10:39.642Z,87.94
2019-01-25T16:13:05.869Z,87.67
2019-01-25T16:15:32.008Z,87.75
2019-01-25T16:17:58.236Z,87.77
2019-01-25T16:20:24.479Z,87.45
2019-01-25T16:23:32.027Z,87.19
2019-01-25T16:25:58.270Z,87.83
2019-01-25T16:28:24.502Z,87.24
2019-01-25T16:30:50.743Z,87.24
2019-01-25T16:33:16.971Z,87.21
2019-01-25T16:35:43.107Z,87.13
2019-01-25T16:38:09.338Z,87.26
2019-01-25T16:40:35.596Z,87.16
2019-01-25T16:43:01.838Z,87.45
2019-01-25T16:46:09.391Z,87.70
2019-01-25T16:48:35.627Z,87.32
2019-01-25T16:51:01.882Z,87.51
2019-01-25T16:53:28.108Z,87.36
2019-01-25T16:55:54.347Z,87.21
2019-01-25T16:58:20.483Z,87.18
2019-01-25T17:00:46.607Z,87.17
2019-01-25T17:03:12.863Z,87.28
2019-01-25T17:05:39.090Z,87.11
2019-01-25T17:08:05.527Z,87.29
2019-01-25T17:10:31.660Z,86.87
2019-01-25T17:12:57.916Z,87.10
2019-01-25T17:15:24.075Z,87.01
2019-01-25T17:17:50.312Z,87.00
2019-01-25T17:23:06.674Z,87.18
2019-01-25T17:28:46.738Z,86.94
2019-01-25T17:31:12.979Z,86.71
2019-01-25T17:33:39.214Z,87.01
2019-01-25T17:36:05.443Z,87.57
2019-01-25T17:38:31.685Z,87.39
2019-01-25T17:40:57.911Z,87.03
2019-01-25T17:43:24.163Z,86.84
2019-01-25T17:45:50.418Z,87.54
2019-01-25T17:48:16.785Z,86.92
2019-01-25T17:50:43.021Z,86.82
2019-01-25T17:53:09.253Z,87.06
2019-01-25T17:55:35.496Z,86.97
2019-01-25T17:58:08.207Z,86.97
2019-01-25T18:03:43.200Z,86.94
2019-01-25T18:06:09.426Z,87.04
2019-01-25T18:08:35.551Z,86.98
2019-01-25T18:11:01.810Z,87.01
2019-01-25T18:13:28.731Z,87.45
2019-01-25T18:15:56.160Z,87.14
2019-01-25T18:18:22.394Z,87.04
2019-01-25T18:20:48.627Z,87.28
2019-01-25T18:23:14.896Z,87.58
2019-01-25T18:31:42.931Z,87.02
2019-01-25T18:34:09.156Z,87.12
2019-01-25T18:36:35.380Z,86.73
2019-01-25T18:39:01.621Z,87.06
2019-01-25T18:41:27.749Z,86.77
2019-01-25T18:43:53.993Z,86.75
2019-01-25T18:46:20.218Z,86.65
2019-01-25T18:48:46.359Z,86.72
2019-01-25T18:51:12.580Z,86.69
2019-01-25T18:53:38.806Z,86.71
2019-01-25T18:56:46.357Z,86.60
2019-01-25T18:59:12.593Z,86.87
2019-01-25T19:01:38.820Z,86.88
2019-01-25T19:04:05.058Z,86.88
2019-01-25T19:06:31.280Z,86.96
2019-01-25T19:08:57.435Z,86.69
2019-01-25T19:11:23.690Z,86.58
2019-01-25T19:13:49.926Z,86.51
2019-01-25T19:16:16.164Z,86.82
2019-01-25T19:18:42.285Z,87.24
2019-01-25T19:21:08.536Z,86.93
2019-01-25T19:23:34.772Z,87.05
2019-01-25T19:26:01.012Z,86.96
2019-01-25T19:28:27.137Z,86.97
2019-01-25T19:30:53.375Z,87.03
2019-01-25T19:33:19.602Z,86.94
2019-01-25T19:35:45.845Z,86.59
2019-01-25T19:41:26.164Z,86.55
2019-01-25T19:43:52.399Z,86.79
2019-01-25T19:46:18.652Z,86.91
2019-01-25T19:48:44.778Z,86.79
2019-01-25T19:51:11.137Z,86.78
2019-01-25T19:53:37.369Z,86.60
2019-01-25T19:56:44.912Z,86.78
2019-01-25T20:01:48.323Z,86.71
2019-01-25T20:04:14.552Z,86.53
2019-01-25T20:06:40.882Z,86.88
2019-01-25T20:09:07.112Z,86.78
2019-01-25T20:11:33.359Z,87.20
2019-01-25T20:13:59.487Z,86.92
2019-01-25T20:16:25.732Z,86.75
2019-01-25T20:18:51.963Z,87.13
2019-01-25T20:21:18.200Z,86.90
2019-01-25T20:23:44.440Z,87.12
2019-01-25T20:26:10.682Z,87.47
2019-01-25T20:28:36.915Z,87.38
2019-01-25T20:31:03.245Z,86.92
2019-01-25T20:36:23.177Z,87.43
2019-01-25T20:38:49.328Z,87.28
2019-01-25T20:41:15.559Z,87.57
2019-01-25T20:43:41.713Z,87.19
2019-01-25T20:46:07.935Z,87.16
2019-01-25T20:48:34.083Z,87.26
2019-01-25T20:51:00.423Z,87.56
2019-01-25T20:53:26.663Z,87.56
2019-01-25T20:55:52.895Z,87.38
2019-01-25T20:58:19.047Z,87.16
2019-01-25T21:00:45.465Z,87.28
2019-01-25T21:06:25.007Z,87.28
2019-01-25T21:08:51.243Z,87.28
2019-01-25T21:11:17.475Z,87.51
2019-01-25T21:13:43.725Z,87.36
2019-01-25T21:16:09.962Z,87.56
2019-01-25T21:18:36.103Z,87.42
2019-01-25T21:21:02.344Z,87.41
2019-01-25T21:23:28.623Z,87.08
2019-01-25T21:25:54.748Z,87.04
2019-01-25T21:28:20.988Z,87.58
2019-01-25T21:30:47.227Z,87.45
2019-01-25T21:33:13.483Z,87.38
2019-01-25T21:35:39.831Z,87.45
2019-01-25T21:38:47.387Z,87.62
2019-01-25T21:41:13.603Z,87.11
2019-01-25T21:43:39.849Z,87.22
2019-01-25T21:46:06.075Z,87.40
2019-01-25T21:48:32.243Z,86.98
2019-01-25T21:50:58.495Z,87.19
2019-01-25T21:53:24.751Z,87.17
2019-01-25T21:55:51.000Z,87.50
2019-01-25T21:58:17.230Z,87.12
2019-01-25T22:00:43.478Z,86.78
2019-01-25T22:03:09.709Z,86.93
2019-01-25T22:05:35.974Z,87.15
2019-01-25T22:11:16.359Z,86.91
2019-01-25T22:13:42.594Z,86.81
2019-01-25T22:16:08.819Z,86.72
2019-01-25T22:18:35.056Z,87.08
2019-01-25T22:21:01.300Z,86.70
2019-01-25T22:23:27.534Z,87.44
2019-01-25T22:25:53.774Z,86.85
2019-01-25T22:28:19.909Z,87.14
2019-01-25T22:30:46.054Z,86.90
2019-01-25T22:33:12.276Z,87.21
2019-01-25T22:35:38.525Z,86.96
2019-01-25T22:38:04.760Z,87.35
2019-01-25T22:43:24.885Z,87.00
2019-01-25T22:45:58.351Z,87.23
2019-01-25T22:48:19.280Z,87.28
2019-01-25T22:50:45.523Z,87.09
2019-01-25T22:53:11.655Z,86.92
2019-01-25T22:55:37.905Z,87.26
2019-01-25T22:58:04.232Z,87.31
2019-01-25T23:01:10.471Z,87.14
2019-01-25T23:09:37.427Z,87.15
2019-01-25T23:12:44.975Z,86.79
2019-01-25T23:18:04.575Z,87.17
2019-01-25T23:20:30.723Z,87.12
2019-01-25T23:22:56.955Z,87.15
2019-01-25T23:25:23.195Z,87.10
2019-01-25T23:28:30.736Z,86.81
2019-01-25T23:30:56.984Z,86.86
2019-01-25T23:33:23.221Z,87.19
2019-01-25T23:35:49.368Z,87.15
2019-01-25T23:38:15.591Z,87.09
2019-01-25T23:40:41.832Z,87.11
2019-01-25T23:43:08.057Z,86.70
2019-01-25T23:45:34.281Z,86.83
2019-01-25T23:48:00.533Z,86.75
2019-01-25T23:50:26.766Z,86.78
2019-01-25T23:52:53.015Z,87.20
2019-01-25T23:55:19.346Z,86.53
2019-01-25T23:57:45.576Z,86.97
